createdAt,value
2019-01-09T00:01:13.569Z,3.20
2019-01-09T00:03:42.505Z,3.20
2019-01-09T00:06:12.516Z,3.20
2019-01-09T00:08:42.360Z,3.20
2019-01-09T00:11:11.224Z,3.20
2019-01-09T00:13:40.092Z,3.20
2019-01-09T00:16:10.479Z,3.30
2019-01-09T00:18:39.380Z,3.30
2019-01-09T00:21:09.015Z,3.30
2019-01-09T00:23:39.356Z,3.30
2019-01-09T00:26:08.626Z,3.30
2019-01-09T00:28:38.352Z,3.20
2019-01-09T00:31:07.272Z,3.20
2019-01-09T00:33:37.555Z,3.20
2019-01-09T00:36:06.720Z,3.30
2019-01-09T00:38:37.792Z,3.30
2019-01-09T00:41:06.698Z,3.20
2019-01-09T00:43:36.080Z,3.20
2019-01-09T00:46:05.283Z,3.30
2019-01-09T00:48:34.261Z,3.30
2019-01-09T00:51:03.564Z,3.30
2019-01-09T00:53:32.593Z,3.20
2019-01-09T00:56:01.604Z,3.20
2019-01-09T00:58:30.700Z,3.20
2019-01-09T01:00:59.583Z,3.20
2019-01-09T01:03:57.904Z,3.20
2019-01-09T01:06:54.927Z,3.10
2019-01-09T01:10:14.048Z,3.20
2019-01-09T01:13:45.628Z,3.20
2019-01-09T01:16:55.108Z,3.20
2019-01-09T01:19:59.948Z,3.20
2019-01-09T01:23:19.079Z,3.20
2019-01-09T01:26:41.228Z,3.20
2019-01-09T01:29:44.584Z,3.20
2019-01-09T01:32:57.232Z,3.20
2019-01-09T01:36:07.964Z,3.10
2019-01-09T01:38:59.075Z,3.10
2019-01-09T01:41:59.603Z,3.10
2019-01-09T01:44:43.913Z,3.00
2019-01-09T01:47:49.260Z,3.10
2019-01-09T01:50:45.750Z,3.00
2019-01-09T01:53:57.787Z,3.10
2019-01-09T01:56:38.752Z,3.10
2019-01-09T01:59:29.539Z,3.10
2019-01-09T02:02:51.544Z,3.10
2019-01-09T02:05:40.143Z,3.00
2019-01-09T02:08:38.309Z,3.10
2019-01-09T02:11:51.929Z,3.10
2019-01-09T02:14:57.299Z,3.10
2019-01-09T02:18:10.173Z,3.00
2019-01-09T02:21:21.360Z,3.00
2019-01-09T02:24:17.433Z,3.10
2019-01-09T02:27:12.232Z,3.00
2019-01-09T02:30:40.884Z,3.00
2019-01-09T02:33:10.260Z,3.00
2019-01-09T02:35:40.348Z,3.00
2019-01-09T02:38:09.295Z,3.00
2019-01-09T02:40:38.308Z,3.00
2019-01-09T02:43:07.148Z,3.00
2019-01-09T02:45:36.512Z,3.00
2019-01-09T02:48:07.355Z,3.00
2019-01-09T02:50:36.453Z,2.90
2019-01-09T02:53:05.266Z,2.90
2019-01-09T02:55:35.801Z,2.90
2019-01-09T02:58:07.209Z,3.00
2019-01-09T03:00:37.612Z,3.00
2019-01-09T03:03:08.293Z,2.90
2019-01-09T03:05:38.166Z,3.00
2019-01-09T03:08:07.199Z,2.90
2019-01-09T03:10:36.064Z,3.00
2019-01-09T03:13:05.467Z,3.00
2019-01-09T03:15:34.407Z,3.00
2019-01-09T03:18:04.243Z,3.00
2019-01-09T03:20:33.092Z,3.00
2019-01-09T03:23:02.198Z,3.00
2019-01-09T03:25:31.922Z,3.00
2019-01-09T03:28:01.085Z,3.00
2019-01-09T03:30:29.978Z,2.90
2019-01-09T03:32:59.479Z,3.00
2019-01-09T03:35:29.126Z,3.00
2019-01-09T03:37:59.200Z,3.00
2019-01-09T03:40:28.183Z,3.00
2019-01-09T03:42:57.300Z,2.90
2019-01-09T03:45:26.492Z,2.90
2019-01-09T03:47:58.040Z,2.90
2019-01-09T03:50:28.976Z,3.00
2019-01-09T03:52:59.407Z,2.90
2019-01-09T03:55:28.816Z,2.90
2019-01-09T03:57:58.732Z,3.00
2019-01-09T04:00:29.562Z,2.90
2019-01-09T04:02:59.668Z,3.00
2019-01-09T04:05:29.070Z,3.00
2019-01-09T04:07:58.740Z,3.00
2019-01-09T04:10:30.152Z,3.00
2019-01-09T04:13:01.997Z,3.00
2019-01-09T04:15:31.167Z,3.00
2019-01-09T04:17:59.917Z,3.00
2019-01-09T04:20:28.876Z,3.00
2019-01-09T04:22:58.490Z,3.00
2019-01-09T04:25:27.344Z,3.00
2019-01-09T04:27:56.991Z,3.00
2019-01-09T04:30:26.132Z,3.00
2019-01-09T04:32:55.292Z,3.00
2019-01-09T04:35:24.334Z,2.50
2019-01-09T04:37:56.780Z,3.00
2019-01-09T04:40:28.803Z,3.00
2019-01-09T04:42:57.933Z,2.90
2019-01-09T04:45:26.724Z,2.90
2019-01-09T04:47:56.287Z,3.00
2019-01-09T04:50:25.790Z,3.00
2019-01-09T04:52:55.088Z,3.00
2019-01-09T04:55:23.972Z,3.00
2019-01-09T04:57:53.663Z,2.90
2019-01-09T05:00:22.592Z,2.90
2019-01-09T05:02:51.608Z,2.80
2019-01-09T05:05:20.968Z,2.80
2019-01-09T05:07:49.886Z,2.90
2019-01-09T05:10:18.744Z,2.90
2019-01-09T05:12:47.929Z,2.90
2019-01-09T05:15:16.772Z,2.90
2019-01-09T05:17:45.732Z,2.80
2019-01-09T05:20:15.180Z,2.80
2019-01-09T05:22:45.755Z,2.80
2019-01-09T05:25:14.776Z,2.80
2019-01-09T05:27:45.239Z,2.80
2019-01-09T05:30:14.088Z,2.80
2019-01-09T05:32:42.976Z,2.80
2019-01-09T05:35:12.156Z,2.70
2019-01-09T05:37:41.022Z,2.70
2019-01-09T05:40:10.165Z,2.70
2019-01-09T05:42:39.028Z,2.70
2019-01-09T05:45:08.896Z,2.70
2019-01-09T05:47:38.982Z,2.60
2019-01-09T05:50:08.787Z,2.60
2019-01-09T05:52:37.804Z,2.70
2019-01-09T05:55:07.015Z,2.70
2019-01-09T05:57:36.903Z,2.60
2019-01-09T06:00:07.963Z,2.60
2019-01-09T06:02:36.869Z,2.60
2019-01-09T06:05:06.650Z,2.60
2019-01-09T06:07:39.278Z,2.60
2019-01-09T06:10:08.500Z,2.60
2019-01-09T06:12:37.606Z,2.60
2019-01-09T06:15:07.242Z,2.60
2019-01-09T06:17:36.212Z,2.60
2019-01-09T06:20:06.827Z,2.70
2019-01-09T06:22:36.241Z,2.70
2019-01-09T06:25:06.545Z,2.70
2019-01-09T06:27:36.109Z,2.70
2019-01-09T06:30:05.521Z,2.70
2019-01-09T06:32:38.092Z,2.70
2019-01-09T06:35:07.017Z,2.70
2019-01-09T06:37:35.980Z,2.70
2019-01-09T06:40:05.492Z,2.70
2019-01-09T06:42:34.336Z,2.80
2019-01-09T06:45:04.510Z,2.70
2019-01-09T06:47:33.367Z,2.80
2019-01-09T06:50:02.280Z,2.80
2019-01-09T06:52:31.124Z,2.80
2019-01-09T06:54:59.848Z,2.90
2019-01-09T06:57:29.210Z,2.90
2019-01-09T06:59:58.557Z,2.90
2019-01-09T07:02:27.468Z,2.90
2019-01-09T07:04:56.807Z,2.90
2019-01-09T07:07:25.628Z,2.80
2019-01-09T07:09:54.916Z,2.80
2019-01-09T07:12:25.428Z,2.90
2019-01-09T07:14:57.812Z,2.90
2019-01-09T07:17:28.532Z,2.90
2019-01-09T07:19:58.774Z,2.90
2019-01-09T07:22:29.482Z,2.80
2019-01-09T07:24:58.950Z,2.90
2019-01-09T07:27:29.444Z,2.80
2019-01-09T07:29:58.327Z,2.80
2019-01-09T07:32:27.699Z,2.80
2019-01-09T07:34:56.651Z,2.80
2019-01-09T07:37:25.473Z,2.80
2019-01-09T07:39:54.492Z,2.80
2019-01-09T07:42:23.738Z,2.80
2019-01-09T07:44:53.936Z,2.90
2019-01-09T07:47:22.880Z,2.90
2019-01-09T07:49:51.808Z,2.80
2019-01-09T07:52:23.173Z,2.80
2019-01-09T07:54:52.790Z,2.80
2019-01-09T07:57:21.587Z,2.70
2019-01-09T07:59:50.477Z,2.70
2019-01-09T08:02:19.276Z,2.80
2019-01-09T08:04:48.089Z,2.80
2019-01-09T08:07:16.864Z,2.80
2019-01-09T08:09:45.643Z,2.80
2019-01-09T08:12:14.556Z,2.70
2019-01-09T08:14:43.950Z,2.60
2019-01-09T08:17:13.029Z,2.50
2019-01-09T08:19:42.340Z,2.50
2019-01-09T08:22:11.203Z,2.50
2019-01-09T08:24:42.633Z,2.60
2019-01-09T08:27:11.764Z,2.60
2019-01-09T08:29:41.485Z,2.60
2019-01-09T08:32:10.333Z,2.70
2019-01-09T08:34:39.472Z,2.60
2019-01-09T08:37:08.495Z,2.60
2019-01-09T08:39:37.288Z,2.70
2019-01-09T08:42:06.529Z,2.70
2019-01-09T08:44:35.592Z,2.70
2019-01-09T08:47:04.483Z,2.70
2019-01-09T08:49:33.559Z,2.60
2019-01-09T08:52:02.512Z,2.60
2019-01-09T08:54:31.346Z,2.50
2019-01-09T08:57:00.460Z,2.50
2019-01-09T08:59:29.544Z,2.50
2019-01-09T09:01:58.359Z,2.50
2019-01-09T09:04:28.416Z,2.60
2019-01-09T09:06:58.351Z,2.60
2019-01-09T09:09:27.788Z,2.60
2019-01-09T09:11:56.700Z,2.60
2019-01-09T09:14:25.460Z,2.60
2019-01-09T09:16:56.684Z,2.70
2019-01-09T09:19:25.832Z,2.70
2019-01-09T09:21:55.172Z,2.60
2019-01-09T09:24:24.578Z,2.60
2019-01-09T09:26:53.471Z,2.60
2019-01-09T09:29:22.497Z,2.60
2019-01-09T09:31:51.592Z,2.70
2019-01-09T09:34:23.816Z,2.80
2019-01-09T09:36:53.390Z,3.00
2019-01-09T09:39:22.312Z,2.90
2019-01-09T09:41:51.317Z,2.90
2019-01-09T09:44:20.212Z,2.90
2019-01-09T09:46:50.455Z,2.90
2019-01-09T09:49:19.265Z,3.00
2019-01-09T09:51:48.328Z,3.20
2019-01-09T09:54:17.235Z,3.10
2019-01-09T09:56:48.663Z,2.90
2019-01-09T09:59:17.508Z,2.80
2019-01-09T10:01:47.492Z,2.70
2019-01-09T10:04:16.675Z,2.70
2019-01-09T10:06:46.271Z,2.70
2019-01-09T10:09:15.388Z,2.70
2019-01-09T10:11:45.078Z,2.80
2019-01-09T10:14:14.340Z,2.80
2019-01-09T10:16:43.123Z,2.80
2019-01-09T10:19:12.291Z,2.80
2019-01-09T10:21:41.064Z,2.90
2019-01-09T10:24:11.433Z,2.90
2019-01-09T10:26:40.385Z,2.90
2019-01-09T10:29:09.314Z,2.90
2019-01-09T10:31:39.236Z,3.00
2019-01-09T10:34:08.577Z,3.00
2019-01-09T10:36:37.720Z,2.90
2019-01-09T10:39:09.044Z,2.90
2019-01-09T10:41:38.036Z,2.90
2019-01-09T10:44:07.002Z,2.90
2019-01-09T10:46:36.305Z,3.00
2019-01-09T10:49:05.704Z,3.00
2019-01-09T10:51:36.233Z,3.10
2019-01-09T10:54:05.532Z,3.10
2019-01-09T10:56:35.364Z,3.10
2019-01-09T10:59:04.448Z,3.10
2019-01-09T11:01:33.225Z,3.20
2019-01-09T11:04:02.555Z,3.10
2019-01-09T11:06:32.540Z,3.10
2019-01-09T11:09:01.597Z,3.10
2019-01-09T11:11:31.216Z,3.10
2019-01-09T11:14:00.015Z,3.10
2019-01-09T11:16:28.876Z,3.10
2019-01-09T11:18:58.805Z,3.00
2019-01-09T11:21:27.748Z,3.00
2019-01-09T11:23:56.650Z,3.10
2019-01-09T11:26:25.556Z,3.10
2019-01-09T11:28:54.983Z,3.10
2019-01-09T11:31:24.092Z,3.10
2019-01-09T11:33:53.108Z,3.10
2019-01-09T11:36:22.124Z,3.10
2019-01-09T11:38:55.673Z,3.10
2019-01-09T11:41:22.476Z,3.10
2019-01-09T11:43:51.436Z,3.20
2019-01-09T11:46:20.340Z,3.20
2019-01-09T11:48:49.423Z,3.10
2019-01-09T11:51:18.324Z,3.10
2019-01-09T11:53:47.167Z,3.10
2019-01-09T11:56:16.064Z,3.10
2019-01-09T11:58:45.325Z,3.10
2019-01-09T12:01:14.412Z,3.10
2019-01-09T12:03:43.508Z,3.10
2019-01-09T12:06:12.549Z,3.10
2019-01-09T12:08:43.953Z,3.10
2019-01-09T12:11:13.234Z,3.10
2019-01-09T12:13:42.060Z,3.00
2019-01-09T12:16:10.929Z,3.00
2019-01-09T12:18:39.936Z,3.00
2019-01-09T12:23:39.795Z,2.90
2019-01-09T12:26:09.132Z,2.90
2019-01-09T12:26:37.985Z,3.00
2019-01-09T12:28:38.284Z,2.80
2019-01-09T12:31:07.132Z,2.80
2019-01-09T12:33:35.864Z,2.70
2019-01-09T12:36:06.436Z,2.70
2019-01-09T12:38:36.937Z,2.70
2019-01-09T12:41:05.844Z,2.70
2019-01-09T12:43:34.736Z,2.70
2019-01-09T12:46:04.260Z,2.70
2019-01-09T12:48:33.681Z,2.80
2019-01-09T12:51:02.803Z,2.80
2019-01-09T12:53:34.130Z,2.80
2019-01-09T12:56:03.268Z,2.80
2019-01-09T12:58:32.360Z,2.80
2019-01-09T13:01:01.424Z,2.80
2019-01-09T13:03:30.204Z,2.80
2019-01-09T13:06:01.352Z,2.90
2019-01-09T13:08:30.173Z,3.00
2019-01-09T13:10:59.169Z,3.00
2019-01-09T13:13:28.004Z,3.00
2019-01-09T13:15:57.020Z,3.10
2019-01-09T13:18:26.233Z,3.10
2019-01-09T13:20:55.184Z,3.10
2019-01-09T13:23:24.349Z,3.10
2019-01-09T13:25:57.886Z,3.10
2019-01-09T13:28:27.184Z,3.10
2019-01-09T13:30:56.258Z,3.00
2019-01-09T13:33:25.316Z,3.00
2019-01-09T13:35:54.272Z,3.00
2019-01-09T13:38:23.232Z,3.00
2019-01-09T13:40:52.407Z,3.00
2019-01-09T13:43:21.172Z,3.00
2019-01-09T13:45:50.135Z,3.00
2019-01-09T13:48:19.387Z,3.00
2019-01-09T13:50:49.805Z,3.00
2019-01-09T13:53:19.142Z,3.00
2019-01-09T13:55:48.012Z,3.00
2019-01-09T13:58:17.952Z,3.00
2019-01-09T14:00:46.960Z,3.00
2019-01-09T14:03:16.368Z,3.00
2019-01-09T14:05:45.258Z,3.00
2019-01-09T14:08:14.135Z,3.00
2019-01-09T14:10:43.305Z,3.00
2019-01-09T14:13:12.137Z,3.00
2019-01-09T14:15:41.335Z,3.00
2019-01-09T14:18:10.236Z,3.00
2019-01-09T14:20:39.276Z,3.00
2019-01-09T14:23:08.744Z,3.00
2019-01-09T14:25:38.658Z,3.00
2019-01-09T14:28:08.241Z,3.00
2019-01-09T14:30:37.628Z,3.00
2019-01-09T14:33:06.993Z,3.10
2019-01-09T14:35:36.046Z,3.00
2019-01-09T14:38:05.568Z,3.00
2019-01-09T14:40:34.847Z,3.00
2019-01-09T14:43:03.995Z,3.00
2019-01-09T14:45:33.256Z,3.00
2019-01-09T14:48:02.138Z,3.00
2019-01-09T14:50:31.029Z,3.00
2019-01-09T14:53:01.368Z,3.00
2019-01-09T14:55:30.558Z,3.00
2019-01-09T14:57:59.942Z,3.00
2019-01-09T15:00:29.024Z,2.90
2019-01-09T15:02:59.348Z,3.00
2019-01-09T15:05:28.408Z,3.00
2019-01-09T15:07:58.699Z,3.00
2019-01-09T15:10:31.634Z,3.00
2019-01-09T15:13:00.849Z,3.00
2019-01-09T15:15:29.928Z,2.90
2019-01-09T15:17:59.972Z,2.90
2019-01-09T15:20:28.909Z,2.90
2019-01-09T15:22:57.776Z,2.90
2019-01-09T15:25:26.618Z,3.00
2019-01-09T15:27:55.696Z,3.00
2019-01-09T15:30:29.941Z,3.00
2019-01-09T15:32:58.814Z,3.00
2019-01-09T15:35:27.788Z,3.00
2019-01-09T15:37:56.732Z,3.00
2019-01-09T15:40:27.801Z,3.00
2019-01-09T15:43:15.869Z,2.90
2019-01-09T15:45:44.780Z,2.90
2019-01-09T15:48:13.516Z,3.00
2019-01-09T15:50:43.897Z,3.00
2019-01-09T15:53:12.673Z,3.00
2019-01-09T15:55:41.604Z,3.00
2019-01-09T15:58:11.819Z,3.00
2019-01-09T16:00:43.485Z,2.90
2019-01-09T16:03:12.784Z,2.90
2019-01-09T16:05:41.765Z,2.90
2019-01-09T16:08:11.595Z,2.90
2019-01-09T16:10:41.791Z,2.80
2019-01-09T16:13:11.204Z,2.80
2019-01-09T16:15:40.156Z,2.80
2019-01-09T16:18:09.415Z,2.90
2019-01-09T16:20:39.424Z,2.80
2019-01-09T16:23:09.026Z,2.80
2019-01-09T16:25:38.309Z,2.80
2019-01-09T16:28:08.058Z,2.80
2019-01-09T16:31:08.388Z,2.80
2019-01-09T16:33:38.941Z,2.90
2019-01-09T16:36:07.996Z,2.80
2019-01-09T16:38:37.000Z,2.80
2019-01-09T16:41:06.350Z,2.70
2019-01-09T16:43:35.216Z,2.80
2019-01-09T16:46:05.605Z,2.80
2019-01-09T16:48:34.516Z,2.80
2019-01-09T16:51:03.562Z,2.80
2019-01-09T16:53:32.836Z,2.80
2019-01-09T16:56:02.760Z,2.80
2019-01-09T16:58:32.008Z,2.80
2019-01-09T17:01:01.013Z,2.80
2019-01-09T17:03:31.618Z,2.80
2019-01-09T17:06:00.448Z,2.80
2019-01-09T17:08:29.220Z,2.80
2019-01-09T17:10:59.004Z,2.80
2019-01-09T17:13:28.392Z,2.80
2019-01-09T17:15:57.344Z,2.70
2019-01-09T17:18:26.616Z,2.80
2019-01-09T17:20:55.477Z,2.80
2019-01-09T17:23:24.971Z,2.70
2019-01-09T17:25:54.768Z,2.70
2019-01-09T17:28:24.937Z,2.70
2019-01-09T17:30:55.507Z,2.70
2019-01-09T17:33:24.540Z,2.70
2019-01-09T17:35:53.532Z,2.70
2019-01-09T17:38:24.520Z,2.60
2019-01-09T17:40:54.910Z,2.60
2019-01-09T17:43:24.721Z,2.50
2019-01-09T17:45:54.537Z,2.60
2019-01-09T17:48:23.858Z,2.50
2019-01-09T17:50:52.911Z,2.50
2019-01-09T17:53:22.207Z,2.60
2019-01-09T17:55:52.298Z,2.60
2019-01-09T17:58:21.644Z,2.60
2019-01-09T18:00:50.740Z,2.50
2019-01-09T18:03:20.393Z,2.50
2019-01-09T18:05:50.176Z,2.50
2019-01-09T18:08:20.361Z,2.60
2019-01-09T18:10:50.538Z,2.50
2019-01-09T18:13:19.532Z,2.50
2019-01-09T18:15:48.628Z,2.30
2019-01-09T18:18:17.857Z,2.20
2019-01-09T18:20:46.739Z,2.20
2019-01-09T18:23:16.644Z,2.30
2019-01-09T18:25:45.490Z,2.40
2019-01-09T18:28:15.225Z,2.40
2019-01-09T18:30:50.975Z,2.40
2019-01-09T18:34:02.402Z,2.40
2019-01-09T18:37:36.836Z,2.40
2019-01-09T18:40:28.279Z,2.50
2019-01-09T18:43:48.049Z,2.50
2019-01-09T18:47:12.303Z,2.40
2019-01-09T18:50:38.935Z,2.40
2019-01-09T18:53:14.849Z,2.50
2019-01-09T18:55:43.843Z,2.50
2019-01-09T18:58:12.724Z,2.50
2019-01-09T19:00:41.580Z,2.50
2019-01-09T19:03:10.797Z,2.40
2019-01-09T19:05:41.187Z,2.40
2019-01-09T19:08:11.452Z,2.40
2019-01-09T19:10:40.225Z,2.40
2019-01-09T19:13:09.076Z,2.50
2019-01-09T19:15:38.001Z,2.40
2019-01-09T19:18:07.155Z,2.40
2019-01-09T19:20:36.821Z,2.40
2019-01-09T19:23:05.687Z,2.40
2019-01-09T19:25:34.544Z,2.40
2019-01-09T19:28:03.913Z,2.40
2019-01-09T19:30:33.117Z,2.40
2019-01-09T19:33:02.406Z,2.40
2019-01-09T19:35:31.615Z,2.30
2019-01-09T19:38:00.517Z,2.30
2019-01-09T19:40:29.913Z,2.30
2019-01-09T19:43:00.426Z,2.60
2019-01-09T19:45:29.230Z,2.30
2019-01-09T19:47:58.196Z,2.30
2019-01-09T19:50:28.576Z,2.30
2019-01-09T19:52:57.970Z,2.30
2019-01-09T19:55:27.911Z,2.30
2019-01-09T19:57:56.792Z,2.20
2019-01-09T20:00:26.704Z,2.20
2019-01-09T20:02:55.584Z,2.20
2019-01-09T20:05:24.737Z,2.20
2019-01-09T20:07:53.799Z,2.20
2019-01-09T20:10:26.120Z,2.20
2019-01-09T20:12:55.535Z,2.20
2019-01-09T20:15:24.560Z,2.20
2019-01-09T20:17:53.984Z,2.20
2019-01-09T20:20:24.773Z,2.20
2019-01-09T20:22:54.135Z,2.10
2019-01-09T20:25:23.234Z,2.10
2019-01-09T20:27:52.346Z,2.10
2019-01-09T20:30:25.032Z,2.10
2019-01-09T20:32:54.464Z,2.10
2019-01-09T20:35:24.177Z,2.10
2019-01-09T20:37:54.614Z,2.10
2019-01-09T20:40:24.359Z,2.10
2019-01-09T20:42:53.332Z,2.10
2019-01-09T20:45:22.417Z,2.10
2019-01-09T20:47:51.963Z,2.00
2019-01-09T20:50:27.314Z,2.00
2019-01-09T20:52:56.591Z,2.00
2019-01-09T20:55:25.461Z,2.00
2019-01-09T20:57:54.623Z,2.00
2019-01-09T21:00:26.635Z,2.00
2019-01-09T21:02:58.040Z,2.00
2019-01-09T21:05:30.772Z,2.00
2019-01-09T21:08:00.914Z,2.00
2019-01-09T21:10:30.096Z,2.00
2019-01-09T21:12:59.135Z,2.00
2019-01-09T21:15:28.509Z,2.00
2019-01-09T21:17:57.752Z,1.90
2019-01-09T21:20:28.168Z,1.90
2019-01-09T21:22:57.551Z,2.00
2019-01-09T21:25:27.771Z,2.00
2019-01-09T21:27:56.813Z,2.00
2019-01-09T21:30:26.000Z,1.90
2019-01-09T21:32:54.958Z,2.00
2019-01-09T21:35:23.880Z,2.00
2019-01-09T21:37:52.892Z,2.00
2019-01-09T21:40:23.948Z,2.00
2019-01-09T21:42:53.275Z,1.90
2019-01-09T21:45:22.578Z,1.90
2019-01-09T21:47:52.716Z,1.90
2019-01-09T21:50:22.403Z,1.90
2019-01-09T21:52:51.195Z,1.90
2019-01-09T21:55:20.295Z,1.90
2019-01-09T21:57:49.174Z,1.90
2019-01-09T22:00:20.736Z,1.90
2019-01-09T22:02:50.482Z,1.90
2019-01-09T22:05:21.188Z,1.90
2019-01-09T22:07:50.127Z,1.90
2019-01-09T22:10:21.914Z,1.80
2019-01-09T22:12:51.747Z,1.90
2019-01-09T22:15:23.377Z,1.90
2019-01-09T22:17:52.389Z,1.90
2019-01-09T22:20:21.808Z,1.80
2019-01-09T22:22:51.128Z,1.70
2019-01-09T22:25:20.507Z,1.80
2019-01-09T22:27:49.405Z,1.80
2019-01-09T22:30:20.930Z,1.80
2019-01-09T22:32:50.144Z,1.80
2019-01-09T22:35:19.337Z,1.80
2019-01-09T22:37:48.338Z,1.80
2019-01-09T22:40:20.787Z,1.70
2019-01-09T22:42:49.437Z,1.80
2019-01-09T22:45:20.237Z,1.80
2019-01-09T22:47:49.165Z,1.70
2019-01-09T22:50:20.415Z,1.80
2019-01-09T22:52:49.331Z,1.70
2019-01-09T22:55:19.432Z,1.70
2019-01-09T22:57:48.193Z,1.70
2019-01-09T23:00:40.532Z,1.60
2019-01-09T23:03:10.511Z,1.60
2019-01-09T23:05:40.976Z,1.60
2019-01-09T23:08:10.104Z,1.60
2019-01-09T23:10:38.897Z,1.60
2019-01-09T23:13:08.209Z,1.60
2019-01-09T23:15:37.628Z,1.60
2019-01-09T23:18:07.035Z,1.60
2019-01-09T23:20:36.373Z,1.60
2019-01-09T23:23:05.867Z,1.50
2019-01-09T23:25:34.748Z,1.50
2019-01-09T23:28:04.424Z,1.50
2019-01-09T23:30:33.475Z,1.50
2019-01-09T23:33:04.346Z,1.50
2019-01-09T23:35:34.812Z,1.50
2019-01-09T23:38:03.816Z,1.50
2019-01-09T23:40:34.411Z,1.50
2019-01-09T23:43:03.698Z,1.40
2019-01-09T23:45:33.040Z,1.40
2019-01-09T23:48:01.901Z,1.50
2019-01-09T23:50:31.324Z,1.40
2019-01-09T23:53:00.314Z,1.40
2019-01-09T23:55:29.425Z,1.40
2019-01-09T23:57:59.800Z,1.40
